Terminal Aerodrome Forecast
Issued by NWS

Current Version | Previous Version | Text Only | Print | Product List | Glossary On
Versions: 1 2 3 4 5 6 7 8 9 10 11 12 13 14 15
000
FTUS45 KTFX 021901 AAA
TAFHLN
TAF AMD
KHLN 021901Z 0219/0318 26011G20KT P6SM SCT070 SCT200
     FM030300 26010KT P6SM VCSH BKN070 BKN130=

USA.gov is the U.S. government's official web portal to all federal, state and local government web resources and services.